createdAt,value
2022-08-09T00:06:51.212Z,23.8
2022-08-09T00:20:51.231Z,23.3
2022-08-09T00:34:52.127Z,23.6
2022-08-09T00:48:51.292Z,23.0
2022-08-09T01:02:51.738Z,21.8
2022-08-09T01:16:51.653Z,21.2
2022-08-09T01:30:53.092Z,20.9
2022-08-09T01:44:51.694Z,21.0
2022-08-09T01:58:51.691Z,20.7
2022-08-09T02:12:51.750Z,20.4
2022-08-09T02:26:51.693Z,20.2
2022-08-09T02:40:51.716Z,19.7
2022-08-09T02:54:54.803Z,19.7
2022-08-09T03:08:52.308Z,19.8
2022-08-09T03:22:51.795Z,21.2
2022-08-09T03:36:58.160Z,20.6
2022-08-09T03:50:51.738Z,19.9
2022-08-09T04:05:51.717Z,19.3
2022-08-09T04:20:51.755Z,19.0
2022-08-09T04:36:51.743Z,19.1
2022-08-09T04:51:51.724Z,19.3
2022-08-09T05:06:51.724Z,19.3
2022-08-09T05:21:52.541Z,19.9
2022-08-09T05:36:51.790Z,20.4
2022-08-09T05:51:51.736Z,20.6
2022-08-09T06:06:51.899Z,20.9
2022-08-09T06:21:58.552Z,21.3
2022-08-09T06:36:57.521Z,24.9
2022-08-09T06:51:51.758Z,27.8
2022-08-09T07:06:53.268Z,29.9
2022-08-09T07:21:56.118Z,29.4
2022-08-09T07:36:52.808Z,28.8
2022-08-09T07:52:04.224Z,27.7
2022-08-09T08:06:55.697Z,29.1
2022-08-09T08:21:52.525Z,30.1
2022-08-09T08:36:51.808Z,30.1
2022-08-09T08:52:00.086Z,30.6
2022-08-09T09:06:51.833Z,31.2
2022-08-09T09:21:51.856Z,31.6
2022-08-09T09:36:53.442Z,31.6
2022-08-09T09:51:51.955Z,32.0
2022-08-09T10:08:01.286Z,31.6
2022-08-09T10:23:51.973Z,31.7
2022-08-09T10:39:52.035Z,31.9
2022-08-09T10:58:00.415Z,32.8
2022-08-09T11:13:59.809Z,32.1
2022-08-09T11:30:05.387Z,32.2
2022-08-09T11:45:00.216Z,33.7
2022-08-09T12:00:00.335Z,34.1
2022-08-09T12:16:00.412Z,33.6
2022-08-09T12:32:02.799Z,33.3
2022-08-09T12:47:00.525Z,34.2
2022-08-09T13:02:00.649Z,34.4
2022-08-09T13:17:01.067Z,34.0
2022-08-09T13:32:14.746Z,34.8
2022-08-09T13:48:00.831Z,35.0
2022-08-09T14:03:02.416Z,35.3
2022-08-09T14:18:06.704Z,34.9
2022-08-09T14:33:03.399Z,35.1
2022-08-09T14:48:02.283Z,35.6
2022-08-09T15:03:01.025Z,35.7
2022-08-09T15:18:01.154Z,35.3
2022-08-09T15:33:01.190Z,35.2
2022-08-09T15:48:03.496Z,34.8
2022-08-09T16:03:01.211Z,35.1
2022-08-09T16:18:01.234Z,35.6
2022-08-09T16:33:01.464Z,34.6
2022-08-09T16:48:37.677Z,31.5
2022-08-09T17:03:01.316Z,30.1
2022-08-09T17:18:01.339Z,29.1
2022-08-09T17:33:04.938Z,28.4
2022-08-09T17:48:02.542Z,27.8
2022-08-09T18:03:01.510Z,26.7
2022-08-09T18:18:03.155Z,25.9
2022-08-09T18:33:01.545Z,25.5
2022-08-09T18:48:01.577Z,24.7
2022-08-09T19:03:01.836Z,24.2
2022-08-09T19:18:01.792Z,24.1
2022-08-09T19:32:01.971Z,23.6
2022-08-09T19:46:01.986Z,23.3
2022-08-09T20:00:06.550Z,23.0
2022-08-09T20:14:01.970Z,22.8
2022-08-09T20:28:01.997Z,23.0
2022-08-09T20:42:02.034Z,23.1
2022-08-09T20:56:02.962Z,23.0
2022-08-09T21:10:02.151Z,23.6
2022-08-09T21:24:02.499Z,24.5
2022-08-09T21:38:02.265Z,25.0
2022-08-09T21:52:02.178Z,23.9
2022-08-09T22:06:02.279Z,23.5
2022-08-09T22:20:02.345Z,23.0
2022-08-09T22:34:02.306Z,23.0
2022-08-09T22:48:05.524Z,22.7
2022-08-09T23:02:02.257Z,22.6
2022-08-09T23:16:03.662Z,22.3
2022-08-09T23:30:02.331Z,22.1
2022-08-09T23:44:02.346Z,21.8
2022-08-09T23:58:08.125Z,22.9
